sensor_id;sensor_type;location;lat;lon;timestamp;pressure;altitude;pressure_sealevel;temperature;humidity
11523;BME280;40093;43.224;27.910;2023-02-28T00:00:11;101425.13;;;9.75;100.00
11523;BME280;40093;43.224;27.910;2023-02-28T00:02:39;101431.81;;;9.38;100.00
11523;BME280;40093;43.224;27.910;2023-02-28T00:05:07;101444.38;;;9.63;100.00
11523;BME280;40093;43.224;27.910;2023-02-28T00:07:35;101436.13;;;9.75;100.00
11523;BME280;40093;43.224;27.910;2023-02-28T00:10:02;101433.72;;;9.73;100.00
11523;BME280;40093;43.224;27.910;2023-02-28T00:12:31;101429.72;;;9.59;100.00
11523;BME280;40093;43.224;27.910;2023-02-28T00:14:58;101435.09;;;9.67;100.00
11523;BME280;40093;43.224;27.910;2023-02-28T00:17:25;101451.59;;;9.67;100.00
11523;BME280;40093;43.224;27.910;2023-02-28T00:19:51;101452.28;;;9.64;100.00
11523;BME280;40093;43.224;27.910;2023-02-28T00:22:20;101466.13;;;9.68;100.00
11523;BME280;40093;43.224;27.910;2023-02-28T00:24:47;101448.22;;;9.85;100.00
11523;BME280;40093;43.224;27.910;2023-02-28T00:27:14;101451.31;;;9.84;100.00
11523;BME280;40093;43.224;27.910;2023-02-28T00:29:43;101445.78;;;9.57;100.00
11523;BME280;40093;43.224;27.910;2023-02-28T00:32:09;101451.28;;;9.57;100.00
11523;BME280;40093;43.224;27.910;2023-02-28T00:34:36;101450.13;;;9.58;100.00
11523;BME280;40093;43.224;27.910;2023-02-28T00:37:04;101441.84;;;9.70;100.00
11523;BME280;40093;43.224;27.910;2023-02-28T00:39:33;101430.88;;;9.58;100.00
11523;BME280;40093;43.224;27.910;2023-02-28T00:42:00;101436.69;;;9.68;100.00
11523;BME280;40093;43.224;27.910;2023-02-28T00:44:27;101443.22;;;9.76;100.00
11523;BME280;40093;43.224;27.910;2023-02-28T00:46:56;101434.72;;;9.80;100.00
11523;BME280;40093;43.224;27.910;2023-02-28T00:49:23;101441.44;;;9.95;100.00
11523;BME280;40093;43.224;27.910;2023-02-28T00:51:51;101447.75;;;9.95;100.00
11523;BME280;40093;43.224;27.910;2023-02-28T00:54:19;101446.91;;;9.68;100.00
11523;BME280;40093;43.224;27.910;2023-02-28T00:56:46;101446.47;;;9.54;100.00
11523;BME280;40093;43.224;27.910;2023-02-28T00:59:15;101445.31;;;9.55;100.00
11523;BME280;40093;43.224;27.910;2023-02-28T01:01:42;101436.69;;;9.68;100.00
11523;BME280;40093;43.224;27.910;2023-02-28T01:04:11;101429.31;;;9.84;100.00
11523;BME280;40093;43.224;27.910;2023-02-28T01:06:38;101426.72;;;9.76;100.00
11523;BME280;40093;43.224;27.910;2023-02-28T01:09:06;101443.41;;;9.82;100.00
11523;BME280;40093;43.224;27.910;2023-02-28T01:11:34;101451.00;;;9.73;100.00
11523;BME280;40093;43.224;27.910;2023-02-28T01:14:01;101456.50;;;9.73;100.00
11523;BME280;40093;43.224;27.910;2023-02-28T01:16:29;101466.34;;;9.86;100.00
11523;BME280;40093;43.224;27.910;2023-02-28T01:18:57;101487.47;;;9.98;100.00
11523;BME280;40093;43.224;27.910;2023-02-28T01:21:25;101482.81;;;9.86;100.00
11523;BME280;40093;43.224;27.910;2023-02-28T01:23:52;101482.75;;;9.71;100.00
11523;BME280;40093;43.224;27.910;2023-02-28T01:26:20;101467.31;;;9.19;100.00
11523;BME280;40093;43.224;27.910;2023-02-28T01:28:48;101474.25;;;8.80;100.00
11523;BME280;40093;43.224;27.910;2023-02-28T01:31:16;101492.00;;;8.95;100.00
11523;BME280;40093;43.224;27.910;2023-02-28T01:33:44;101484.19;;;8.40;100.00
11523;BME280;40093;43.224;27.910;2023-02-28T01:36:13;101476.81;;;8.53;100.00
11523;BME280;40093;43.224;27.910;2023-02-28T01:38:41;101476.66;;;8.82;100.00
11523;BME280;40093;43.224;27.910;2023-02-28T01:41:15;101465.31;;;8.83;100.00
11523;BME280;40093;43.224;27.910;2023-02-28T01:43:58;101463.53;;;8.87;100.00
11523;BME280;40093;43.224;27.910;2023-02-28T01:46:28;101473.69;;;8.99;100.00
11523;BME280;40093;43.224;27.910;2023-02-28T01:49:00;101471.63;;;8.84;100.00
11523;BME280;40093;43.224;27.910;2023-02-28T01:51:32;101482.25;;;8.73;100.00
11523;BME280;40093;43.224;27.910;2023-02-28T01:54:04;101478.13;;;8.67;100.00
11523;BME280;40093;43.224;27.910;2023-02-28T01:56:42;101486.59;;;8.74;100.00
11523;BME280;40093;43.224;27.910;2023-02-28T01:59:12;101480.13;;;8.91;100.00
11523;BME280;40093;43.224;27.910;2023-02-28T02:01:40;101488.13;;;9.08;100.00
11523;BME280;40093;43.224;27.910;2023-02-28T02:04:08;101498.22;;;9.28;100.00
11523;BME280;40093;43.224;27.910;2023-02-28T02:06:38;101494.56;;;9.36;100.00
11523;BME280;40093;43.224;27.910;2023-02-28T02:09:07;101481.97;;;9.11;100.00
11523;BME280;40093;43.224;27.910;2023-02-28T02:11:35;101468.25;;;9.23;100.00
11523;BME280;40093;43.224;27.910;2023-02-28T02:17:25;101488.38;;;9.15;100.00
11523;BME280;40093;43.224;27.910;2023-02-28T02:20:27;101498.97;;;9.04;100.00
11523;BME280;40093;43.224;27.910;2023-02-28T02:23:38;101504.72;;;9.11;100.00
11523;BME280;40093;43.224;27.910;2023-02-28T02:26:33;101492.47;;;9.21;100.00
11523;BME280;40093;43.224;27.910;2023-02-28T02:29:26;101479.56;;;9.21;100.00
11523;BME280;40093;43.224;27.910;2023-02-28T02:32:28;101476.94;;;9.01;100.00
11523;BME280;40093;43.224;27.910;2023-02-28T02:35:06;101476.88;;;8.89;100.00
11523;BME280;40093;43.224;27.910;2023-02-28T02:37:41;101483.97;;;8.78;100.00
11523;BME280;40093;43.224;27.910;2023-02-28T02:40:13;101482.34;;;8.77;100.00
11523;BME280;40093;43.224;27.910;2023-02-28T02:42:46;101475.16;;;8.72;100.00
11523;BME280;40093;43.224;27.910;2023-02-28T02:45:18;101468.56;;;8.97;100.00
11523;BME280;40093;43.224;27.910;2023-02-28T02:47:48;101485.25;;;9.04;100.00
11523;BME280;40093;43.224;27.910;2023-02-28T02:50:21;101512.63;;;9.01;100.00
11523;BME280;40093;43.224;27.910;2023-02-28T02:52:52;101521.06;;;9.08;100.00
11523;BME280;40093;43.224;27.910;2023-02-28T02:55:22;101508.03;;;9.17;100.00
11523;BME280;40093;43.224;27.910;2023-02-28T02:57:52;101490.28;;;9.02;100.00
11523;BME280;40093;43.224;27.910;2023-02-28T03:00:23;101494.06;;;8.98;100.00
11523;BME280;40093;43.224;27.910;2023-02-28T03:02:53;101498.63;;;8.82;100.00
11523;BME280;40093;43.224;27.910;2023-02-28T03:05:26;101483.16;;;8.65;100.00
11523;BME280;40093;43.224;27.910;2023-02-28T03:07:53;101506.47;;;8.71;100.00
11523;BME280;40093;43.224;27.910;2023-02-28T03:10:29;101507.09;;;8.89;100.00
11523;BME280;40093;43.224;27.910;2023-02-28T03:13:06;101518.44;;;8.99;100.00
11523;BME280;40093;43.224;27.910;2023-02-28T03:15:45;101526.34;;;9.01;100.00
11523;BME280;40093;43.224;27.910;2023-02-28T03:18:22;101537.91;;;8.94;100.00
11523;BME280;40093;43.224;27.910;2023-02-28T03:21:01;101548.91;;;9.06;100.00
11523;BME280;40093;43.224;27.910;2023-02-28T03:23:37;101544.66;;;9.09;100.00
11523;BME280;40093;43.224;27.910;2023-02-28T03:26:10;101532.88;;;9.08;100.00
11523;BME280;40093;43.224;27.910;2023-02-28T03:28:50;101509.06;;;9.00;100.00
11523;BME280;40093;43.224;27.910;2023-02-28T03:31:22;101499.06;;;8.84;100.00
11523;BME280;40093;43.224;27.910;2023-02-28T03:33:57;101508.75;;;8.69;100.00
11523;BME280;40093;43.224;27.910;2023-02-28T03:36:29;101519.28;;;8.67;100.00
11523;BME280;40093;43.224;27.910;2023-02-28T03:38:59;101518.78;;;8.53;100.00
11523;BME280;40093;43.224;27.910;2023-02-28T03:41:31;101524.81;;;8.47;100.00
11523;BME280;40093;43.224;27.910;2023-02-28T03:44:03;101520.66;;;8.41;100.00
11523;BME280;40093;43.224;27.910;2023-02-28T03:46:35;101517.41;;;8.27;100.00
11523;BME280;40093;43.224;27.910;2023-02-28T03:49:08;101514.19;;;8.25;100.00
11523;BME280;40093;43.224;27.910;2023-02-28T03:51:40;101526.47;;;8.39;100.00
11523;BME280;40093;43.224;27.910;2023-02-28T03:54:12;101540.59;;;8.50;100.00
11523;BME280;40093;43.224;27.910;2023-02-28T03:56:43;101554.81;;;8.64;100.00
11523;BME280;40093;43.224;27.910;2023-02-28T03:59:16;101555.00;;;8.79;100.00
11523;BME280;40093;43.224;27.910;2023-02-28T04:01:47;101542.69;;;8.65;100.00
11523;BME280;40093;43.224;27.910;2023-02-28T04:04:16;101551.56;;;8.50;100.00
11523;BME280;40093;43.224;27.910;2023-02-28T04:06:44;101547.53;;;8.68;100.00
11523;BME280;40093;43.224;27.910;2023-02-28T04:09:14;101519.38;;;8.59;100.00
11523;BME280;40093;43.224;27.910;2023-02-28T04:11:42;101529.16;;;8.80;100.00
11523;BME280;40093;43.224;27.910;2023-02-28T04:14:11;101524.47;;;8.81;100.00
11523;BME280;40093;43.224;27.910;2023-02-28T04:16:40;101535.00;;;8.79;100.00
11523;BME280;40093;43.224;27.910;2023-02-28T04:19:08;101542.09;;;8.80;100.00
11523;BME280;40093;43.224;27.910;2023-02-28T04:21:37;101546.81;;;8.59;100.00
11523;BME280;40093;43.224;27.910;2023-02-28T04:24:07;101544.69;;;8.76;100.00
11523;BME280;40093;43.224;27.910;2023-02-28T04:26:39;101527.63;;;8.71;100.00
11523;BME280;40093;43.224;27.910;2023-02-28T04:29:08;101528.25;;;8.56;100.00
11523;BME280;40093;43.224;27.910;2023-02-28T04:31:36;101536.91;;;8.46;100.00
11523;BME280;40093;43.224;27.910;2023-02-28T04:34:04;101537.47;;;8.19;100.00
11523;BME280;40093;43.224;27.910;2023-02-28T04:36:31;101526.56;;;8.31;100.00
11523;BME280;40093;43.224;27.910;2023-02-28T04:38:58;101528.31;;;8.35;100.00
11523;BME280;40093;43.224;27.910;2023-02-28T04:41:26;101522.19;;;8.50;100.00
11523;BME280;40093;43.224;27.910;2023-02-28T04:43:53;101518.44;;;8.55;100.00
11523;BME280;40093;43.224;27.910;2023-02-28T04:46:21;101520.53;;;8.58;100.00
11523;BME280;40093;43.224;27.910;2023-02-28T04:48:48;101510.16;;;8.43;100.00
11523;BME280;40093;43.224;27.910;2023-02-28T04:51:17;101495.53;;;8.39;100.00
11523;BME280;40093;43.224;27.910;2023-02-28T04:53:46;101509.78;;;8.32;100.00
11523;BME280;40093;43.224;27.910;2023-02-28T04:56:15;101510.44;;;8.29;100.00
11523;BME280;40093;43.224;27.910;2023-02-28T04:58:43;101522.22;;;8.30;100.00
11523;BME280;40093;43.224;27.910;2023-02-28T05:01:20;101520.22;;;8.18;100.00
11523;BME280;40093;43.224;27.910;2023-02-28T05:03:47;101524.03;;;8.26;100.00
11523;BME280;40093;43.224;27.910;2023-02-28T05:06:15;101515.53;;;8.19;100.00
11523;BME280;40093;43.224;27.910;2023-02-28T05:08:42;101526.09;;;8.29;100.00
11523;BME280;40093;43.224;27.910;2023-02-28T05:11:14;101529.34;;;8.43;100.00
11523;BME280;40093;43.224;27.910;2023-02-28T05:13:43;101528.44;;;8.39;100.00
11523;BME280;40093;43.224;27.910;2023-02-28T05:16:10;101514.25;;;8.37;100.00
11523;BME280;40093;43.224;27.910;2023-02-28T05:18:37;101527.28;;;8.40;100.00
11523;BME280;40093;43.224;27.910;2023-02-28T05:21:04;101544.94;;;8.51;100.00
11523;BME280;40093;43.224;27.910;2023-02-28T05:23:31;101538.59;;;8.59;100.00
11523;BME280;40093;43.224;27.910;2023-02-28T05:25:58;101548.00;;;8.70;100.00
11523;BME280;40093;43.224;27.910;2023-02-28T05:28:25;101535.06;;;8.70;100.00
11523;BME280;40093;43.224;27.910;2023-02-28T05:30:53;101549.34;;;8.64;100.00
11523;BME280;40093;43.224;27.910;2023-02-28T05:33:20;101563.28;;;8.59;100.00
11523;BME280;40093;43.224;27.910;2023-02-28T05:35:47;101563.94;;;8.56;100.00
11523;BME280;40093;43.224;27.910;2023-02-28T05:38:14;101571.81;;;8.57;100.00
11523;BME280;40093;43.224;27.910;2023-02-28T05:40:42;101607.97;;;8.59;100.00
11523;BME280;40093;43.224;27.910;2023-02-28T05:43:10;101621.34;;;8.61;100.00
11523;BME280;40093;43.224;27.910;2023-02-28T05:45:37;101632.84;;;8.75;100.00
11523;BME280;40093;43.224;27.910;2023-02-28T05:48:05;101624.41;;;8.80;100.00
11523;BME280;40093;43.224;27.910;2023-02-28T05:50:32;101645.06;;;8.98;100.00
11523;BME280;40093;43.224;27.910;2023-02-28T05:52:59;101652.97;;;8.99;100.00
11523;BME280;40093;43.224;27.910;2023-02-28T05:55:26;101634.59;;;9.12;100.00
11523;BME280;40093;43.224;27.910;2023-02-28T05:57:53;101629.53;;;9.02;100.00
11523;BME280;40093;43.224;27.910;2023-02-28T06:00:20;101627.56;;;8.49;100.00
11523;BME280;40093;43.224;27.910;2023-02-28T06:02:48;101617.34;;;8.38;100.00
11523;BME280;40093;43.224;27.910;2023-02-28T06:05:17;101593.38;;;8.26;100.00
11523;BME280;40093;43.224;27.910;2023-02-28T06:07:44;101606.00;;;7.90;100.00
11523;BME280;40093;43.224;27.910;2023-02-28T06:10:12;101625.09;;;8.07;100.00
11523;BME280;40093;43.224;27.910;2023-02-28T06:12:39;101621.84;;;8.13;100.00
11523;BME280;40093;43.224;27.910;2023-02-28T06:15:10;101622.56;;;8.31;100.00
11523;BME280;40093;43.224;27.910;2023-02-28T06:17:38;101630.91;;;8.34;100.00
11523;BME280;40093;43.224;27.910;2023-02-28T06:20:06;101635.94;;;8.53;100.00
11523;BME280;40093;43.224;27.910;2023-02-28T06:22:35;101629.38;;;8.66;100.00
11523;BME280;40093;43.224;27.910;2023-02-28T06:25:02;101625.63;;;8.70;100.00
11523;BME280;40093;43.224;27.910;2023-02-28T06:27:30;101630.97;;;8.67;100.00
11523;BME280;40093;43.224;27.910;2023-02-28T06:29:57;101623.22;;;8.69;100.00
11523;BME280;40093;43.224;27.910;2023-02-28T06:32:24;101633.00;;;8.58;100.00
11523;BME280;40093;43.224;27.910;2023-02-28T06:34:51;101627.56;;;8.49;100.00
11523;BME280;40093;43.224;27.910;2023-02-28T06:37:18;101622.63;;;8.43;100.00
11523;BME280;40093;43.224;27.910;2023-02-28T06:39:47;101623.50;;;8.55;100.00
11523;BME280;40093;43.224;27.910;2023-02-28T06:42:13;101619.81;;;8.72;100.00
11523;BME280;40093;43.224;27.910;2023-02-28T06:44:40;101619.59;;;8.77;100.00
11523;BME280;40093;43.224;27.910;2023-02-28T06:47:08;101615.00;;;8.69;100.00
11523;BME280;40093;43.224;27.910;2023-02-28T06:49:36;101617.97;;;8.76;100.00
11523;BME280;40093;43.224;27.910;2023-02-28T06:52:04;101612.13;;;8.65;100.00
11523;BME280;40093;43.224;27.910;2023-02-28T06:54:31;101626.31;;;8.47;100.00
11523;BME280;40093;43.224;27.910;2023-02-28T06:56:59;101622.81;;;8.58;100.00
11523;BME280;40093;43.224;27.910;2023-02-28T06:59:26;101625.84;;;8.65;100.00
11523;BME280;40093;43.224;27.910;2023-02-28T07:01:53;101631.78;;;8.67;100.00
11523;BME280;40093;43.224;27.910;2023-02-28T07:04:20;101616.78;;;8.85;100.00
11523;BME280;40093;43.224;27.910;2023-02-28T07:06:47;101624.78;;;8.90;100.00
11523;BME280;40093;43.224;27.910;2023-02-28T07:09:14;101620.44;;;8.89;100.00
11523;BME280;40093;43.224;27.910;2023-02-28T07:11:41;101621.03;;;8.95;100.00
11523;BME280;40093;43.224;27.910;2023-02-28T07:14:10;101626.53;;;8.95;100.00
11523;BME280;40093;43.224;27.910;2023-02-28T07:16:37;101632.84;;;8.95;100.00
11523;BME280;40093;43.224;27.910;2023-02-28T07:19:04;101634.81;;;9.07;100.00
11523;BME280;40093;43.224;27.910;2023-02-28T07:21:31;101625.84;;;8.98;100.00
11523;BME280;40093;43.224;27.910;2023-02-28T07:23:58;101627.63;;;8.82;100.00
11523;BME280;40093;43.224;27.910;2023-02-28T07:26:25;101621.00;;;8.83;100.00
11523;BME280;40093;43.224;27.910;2023-02-28T07:28:52;101629.22;;;8.83;100.00
11523;BME280;40093;43.224;27.910;2023-02-28T07:31:21;101634.72;;;8.83;100.00
11523;BME280;40093;43.224;27.910;2023-02-28T07:33:47;101622.13;;;8.82;100.00
11523;BME280;40093;43.224;27.910;2023-02-28T07:36:16;101640.03;;;8.67;100.00
11523;BME280;40093;43.224;27.910;2023-02-28T07:38:45;101619.06;;;8.63;100.00
11523;BME280;40093;43.224;27.910;2023-02-28T07:41:14;101615.66;;;8.66;100.00
11523;BME280;40093;43.224;27.910;2023-02-28T07:43:41;101610.88;;;8.75;100.00
11523;BME280;40093;43.224;27.910;2023-02-28T07:46:11;101602.66;;;8.75;100.00
11523;BME280;40093;43.224;27.910;2023-02-28T07:48:42;101603.34;;;8.72;100.00
11523;BME280;40093;43.224;27.910;2023-02-28T07:51:10;101608.88;;;8.84;100.00
11523;BME280;40093;43.224;27.910;2023-02-28T07:53:37;101618.50;;;8.90;100.00
11523;BME280;40093;43.224;27.910;2023-02-28T07:56:05;101620.00;;;8.67;100.00
11523;BME280;40093;43.224;27.910;2023-02-28T07:58:32;101614.50;;;8.67;100.00
11523;BME280;40093;43.224;27.910;2023-02-28T08:01:05;101614.25;;;8.60;100.00
11523;BME280;40093;43.224;27.910;2023-02-28T08:03:32;101627.28;;;8.83;100.00
11523;BME280;40093;43.224;27.910;2023-02-28T08:06:00;101641.66;;;9.01;100.00
11523;BME280;40093;43.224;27.910;2023-02-28T08:08:27;101652.78;;;8.84;100.00
11523;BME280;40093;43.224;27.910;2023-02-28T08:10:58;101656.25;;;8.93;100.00
11523;BME280;40093;43.224;27.910;2023-02-28T08:13:26;101664.78;;;9.00;100.00
11523;BME280;40093;43.224;27.910;2023-02-28T08:15:53;101663.22;;;9.11;100.00
11523;BME280;40093;43.224;27.910;2023-02-28T08:18:22;101667.53;;;9.00;100.00
11523;BME280;40093;43.224;27.910;2023-02-28T08:20:49;101670.88;;;8.85;100.00
11523;BME280;40093;43.224;27.910;2023-02-28T08:23:18;101659.59;;;8.78;100.00
11523;BME280;40093;43.224;27.910;2023-02-28T08:25:52;101670.59;;;8.78;100.00
11523;BME280;40093;43.224;27.910;2023-02-28T08:28:19;101670.13;;;8.76;100.00
11523;BME280;40093;43.224;27.910;2023-02-28T08:30:45;101671.53;;;8.82;100.00
11523;BME280;40093;43.224;27.910;2023-02-28T08:33:12;101659.16;;;8.76;100.00
11523;BME280;40093;43.224;27.910;2023-02-28T08:35:39;101667.38;;;8.76;100.00
11523;BME280;40093;43.224;27.910;2023-02-28T08:38:06;101659.75;;;8.81;100.00
11523;BME280;40093;43.224;27.910;2023-02-28T08:40:34;101653.44;;;9.01;100.00
11523;BME280;40093;43.224;27.910;2023-02-28T08:43:01;101656.03;;;8.98;100.00
11523;BME280;40093;43.224;27.910;2023-02-28T08:45:28;101668.97;;;8.97;100.00
11523;BME280;40093;43.224;27.910;2023-02-28T08:47:55;101666.56;;;8.96;100.00
11523;BME280;40093;43.224;27.910;2023-02-28T08:50:22;101666.06;;;8.82;100.00
11523;BME280;40093;43.224;27.910;2023-02-28T08:52:49;101662.50;;;8.61;100.00
11523;BME280;40093;43.224;27.910;2023-02-28T08:55:16;101663.38;;;8.32;100.00
11523;BME280;40093;43.224;27.910;2023-02-28T08:57:44;101675.19;;;8.24;100.00
11523;BME280;40093;43.224;27.910;2023-02-28T09:00:12;101669.00;;;8.36;100.00
11523;BME280;40093;43.224;27.910;2023-02-28T09:02:40;101671.38;;;8.37;100.00
11523;BME280;40093;43.224;27.910;2023-02-28T09:05:09;101674.03;;;8.54;100.00
11523;BME280;40093;43.224;27.910;2023-02-28T09:07:36;101660.91;;;8.60;100.00
11523;BME280;40093;43.224;27.910;2023-02-28T09:10:03;101655.88;;;8.62;100.00
11523;BME280;40093;43.224;27.910;2023-02-28T09:12:33;101654.81;;;8.75;100.00
11523;BME280;40093;43.224;27.910;2023-02-28T09:15:02;101653.34;;;8.77;100.00
11523;BME280;40093;43.224;27.910;2023-02-28T09:17:29;101650.25;;;8.79;100.00
11523;BME280;40093;43.224;27.910;2023-02-28T09:19:55;101655.22;;;8.85;100.00
11523;BME280;40093;43.224;27.910;2023-02-28T09:22:22;101657.28;;;8.88;100.00
11523;BME280;40093;43.224;27.910;2023-02-28T09:24:49;101651.47;;;8.90;100.00
11523;BME280;40093;43.224;27.910;2023-02-28T09:27:16;101655.25;;;8.97;100.00
11523;BME280;40093;43.224;27.910;2023-02-28T09:29:43;101651.28;;;9.07;100.00
11523;BME280;40093;43.224;27.910;2023-02-28T09:32:11;101664.78;;;9.00;100.00
11523;BME280;40093;43.224;27.910;2023-02-28T09:34:38;101661.94;;;9.08;100.00
11523;BME280;40093;43.224;27.910;2023-02-28T09:37:05;101660.34;;;9.07;100.00
11523;BME280;40093;43.224;27.910;2023-02-28T09:39:32;101659.75;;;9.02;100.00
11523;BME280;40093;43.224;27.910;2023-02-28T09:41:59;101664.97;;;8.95;100.00
11523;BME280;40093;43.224;27.910;2023-02-28T09:44:28;101671.38;;;8.99;100.00
11523;BME280;40093;43.224;27.910;2023-02-28T09:47:00;101667.97;;;9.02;100.00
11523;BME280;40093;43.224;27.910;2023-02-28T09:49:37;101670.09;;;9.17;100.00
11523;BME280;40093;43.224;27.910;2023-02-28T09:52:08;101677.22;;;9.30;100.00
11523;BME280;40093;43.224;27.910;2023-02-28T09:54:36;101681.47;;;9.27;100.00
11523;BME280;40093;43.224;27.910;2023-02-28T09:57:07;101681.47;;;9.27;100.00
11523;BME280;40093;43.224;27.910;2023-02-28T09:59:59;101687.00;;;9.39;100.00
11523;BME280;40093;43.224;27.910;2023-02-28T10:02:45;101686.13;;;9.59;100.00
11523;BME280;40093;43.224;27.910;2023-02-28T10:05:16;101676.97;;;9.67;100.00
11523;BME280;40093;43.224;27.910;2023-02-28T10:08:03;101692.22;;;9.77;100.00
11523;BME280;40093;43.224;27.910;2023-02-28T10:10:37;101696.78;;;9.73;100.00
11523;BME280;40093;43.224;27.910;2023-02-28T10:13:13;101688.06;;;9.71;100.00
11523;BME280;40093;43.224;27.910;2023-02-28T10:15:41;101690.25;;;9.65;100.00
11523;BME280;40093;43.224;27.910;2023-02-28T10:18:11;101683.47;;;9.63;100.00
11523;BME280;40093;43.224;27.910;2023-02-28T10:20:42;101675.22;;;9.63;100.00
11523;BME280;40093;43.224;27.910;2023-02-28T10:23:14;101680.72;;;9.63;100.00
11523;BME280;40093;43.224;27.910;2023-02-28T10:25:47;101671.38;;;9.64;100.00
11523;BME280;40093;43.224;27.910;2023-02-28T10:28:19;101677.41;;;9.57;100.00
11523;BME280;40093;43.224;27.910;2023-02-28T10:30:48;101668.50;;;9.28;100.00
11523;BME280;40093;43.224;27.910;2023-02-28T10:33:21;101658.41;;;9.20;100.00
11523;BME280;40093;43.224;27.910;2023-02-28T10:35:51;101644.69;;;9.20;100.00
11523;BME280;40093;43.224;27.910;2023-02-28T10:38:20;101653.00;;;9.11;100.00
11523;BME280;40093;43.224;27.910;2023-02-28T10:40:47;101647.19;;;9.13;100.00
11523;BME280;40093;43.224;27.910;2023-02-28T10:43:20;101657.38;;;9.12;100.00
11523;BME280;40093;43.224;27.910;2023-02-28T10:45:59;101643.59;;;9.00;100.00
11523;BME280;40093;43.224;27.910;2023-02-28T10:48:36;101646.63;;;8.87;100.00
11523;BME280;40093;43.224;27.910;2023-02-28T10:51:07;101633.34;;;8.89;100.00
11523;BME280;40093;43.224;27.910;2023-02-28T10:53:38;101632.09;;;8.86;100.00
11523;BME280;40093;43.224;27.910;2023-02-28T10:56:15;101629.69;;;8.85;100.00
11523;BME280;40093;43.224;27.910;2023-02-28T10:58:49;101622.88;;;8.91;100.00
11523;BME280;40093;43.224;27.910;2023-02-28T11:01:17;101620.16;;;9.03;100.00
11523;BME280;40093;43.224;27.910;2023-02-28T11:03:45;101625.56;;;9.11;100.00
11523;BME280;40093;43.224;27.910;2023-02-28T11:06:19;101620.44;;;9.22;100.00
11523;BME280;40093;43.224;27.910;2023-02-28T11:08:49;101625.50;;;9.32;100.00
11523;BME280;40093;43.224;27.910;2023-02-28T11:11:17;101607.06;;;9.32;100.00
11523;BME280;40093;43.224;27.910;2023-02-28T11:13:46;101620.03;;;9.44;100.00
11523;BME280;40093;43.224;27.910;2023-02-28T11:16:16;101617.31;;;9.56;100.00
11523;BME280;40093;43.224;27.910;2023-02-28T11:18:47;101620.84;;;9.56;100.00
11523;BME280;40093;43.224;27.910;2023-02-28T11:21:20;101613.28;;;9.65;100.00
11523;BME280;40093;43.224;27.910;2023-02-28T11:23:51;101621.19;;;9.67;100.00
11523;BME280;40093;43.224;27.910;2023-02-28T11:26:42;101615.91;;;9.73;100.00
11523;BME280;40093;43.224;27.910;2023-02-28T11:29:20;101619.03;;;9.72;100.00
11523;BME280;40093;43.224;27.910;2023-02-28T11:32:03;101606.63;;;9.54;100.00
11523;BME280;40093;43.224;27.910;2023-02-28T11:34:31;101602.28;;;9.53;100.00
11523;BME280;40093;43.224;27.910;2023-02-28T11:37:01;101606.47;;;9.27;100.00
11523;BME280;40093;43.224;27.910;2023-02-28T11:39:30;101599.97;;;9.31;100.00
11523;BME280;40093;43.224;27.910;2023-02-28T11:42:13;101594.38;;;9.40;100.00
11523;BME280;40093;43.224;27.910;2023-02-28T11:44:59;101598.50;;;9.34;100.00
11523;BME280;40093;43.224;27.910;2023-02-28T11:47:33;101594.03;;;9.41;100.00
11523;BME280;40093;43.224;27.910;2023-02-28T11:50:14;101596.22;;;9.48;100.00
11523;BME280;40093;43.224;27.910;2023-02-28T11:52:50;101588.44;;;9.50;100.00
11523;BME280;40093;43.224;27.910;2023-02-28T11:55:23;101578.81;;;9.44;100.00
11523;BME280;40093;43.224;27.910;2023-02-28T11:58:10;101591.16;;;9.38;100.00
11523;BME280;40093;43.224;27.910;2023-02-28T12:00:50;101585.09;;;9.32;100.00
11523;BME280;40093;43.224;27.910;2023-02-28T12:03:28;101570.78;;;9.27;100.00
11523;BME280;40093;43.224;27.910;2023-02-28T12:06:08;101568.03;;;9.27;100.00
11523;BME280;40093;43.224;27.910;2023-02-28T12:08:49;101567.13;;;9.35;100.00
11523;BME280;40093;43.224;27.910;2023-02-28T12:11:30;101571.94;;;9.38;100.00
11523;BME280;40093;43.224;27.910;2023-02-28T12:14:23;101569.44;;;9.45;100.00
11523;BME280;40093;43.224;27.910;2023-02-28T12:17:04;101575.38;;;9.35;100.00
11523;BME280;40093;43.224;27.910;2023-02-28T12:19:43;101587.16;;;9.35;100.00
11523;BME280;40093;43.224;27.910;2023-02-28T12:22:26;101584.41;;;9.47;100.00
11523;BME280;40093;43.224;27.910;2023-02-28T12:25:22;101577.44;;;9.50;100.00
11523;BME280;40093;43.224;27.910;2023-02-28T12:27:51;101587.16;;;9.47;100.00
11523;BME280;40093;43.224;27.910;2023-02-28T12:30:22;101588.53;;;9.29;100.00
11523;BME280;40093;43.224;27.910;2023-02-28T12:32:55;101581.75;;;9.27;100.00
11523;BME280;40093;43.224;27.910;2023-02-28T12:35:25;101580.63;;;9.28;100.00
11523;BME280;40093;43.224;27.910;2023-02-28T12:48:31;101582.25;;;8.84;100.00
11523;BME280;40093;43.224;27.910;2023-02-28T12:51:05;101573.69;;;8.98;100.00
11523;BME280;40093;43.224;27.910;2023-02-28T12:53:47;101569.34;;;9.09;100.00
11523;BME280;40093;43.224;27.910;2023-02-28T12:56:20;101566.19;;;9.19;100.00
11523;BME280;40093;43.224;27.910;2023-02-28T12:58:51;101580.59;;;9.16;100.00
11523;BME280;40093;43.224;27.910;2023-02-28T13:01:36;101588.03;;;9.15;100.00
11523;BME280;40093;43.224;27.910;2023-02-28T13:04:25;101586.09;;;9.16;100.00
11523;BME280;40093;43.224;27.910;2023-02-28T13:07:06;101600.56;;;9.04;100.00
11523;BME280;40093;43.224;27.910;2023-02-28T13:09:37;101577.81;;;8.92;100.00
11523;BME280;40093;43.224;27.910;2023-02-28T13:12:13;101591.00;;;9.10;100.00